Time;durP1;ratioP1;P1;durP2;ratioP2;P2;SDS_P1;SDS_P2;PMS_P1;PMS_P2;Temp;Humidity;BMP_temperature;BMP_pressure;BME280_temperature;BME280_humidity;BME280_pressure;Samples;Min_cycle;Max_cycle;Signal;HPM_P1;HPM_P2
2022/01/31 00:00:59;;;;;;;19.60;5.20;;;;;;;5.78;62.19;99248.69;5070954;28;20200;-55
2022/01/31 00:03:26;;;;;;;16.47;5.13;;;;;;;5.84;61.19;99253.97;5070512;28;20217;-55
2022/01/31 00:05:55;;;;;;;17.43;4.80;;;;;;;5.90;60.29;99246.56;5070737;28;20200;-56
2022/01/31 00:08:24;;;;;;;18.30;5.63;;;;;;;5.94;59.88;99240.72;5070636;28;20225;-56
2022/01/31 00:10:51;;;;;;;23.43;5.47;;;;;;;5.94;59.62;99239.84;5070587;28;20289;-56
2022/01/31 00:13:22;;;;;;;22.33;5.30;;;;;;;6.03;58.61;99240.13;5070579;28;20239;-56
2022/01/31 00:15:54;;;;;;;16.47;5.47;;;;;;;6.03;58.44;99229.06;5070846;28;20685;-56
2022/01/31 00:18:21;;;;;;;18.83;5.13;;;;;;;6.03;59.45;99241.81;5070376;28;20201;-56
2022/01/31 00:20:48;;;;;;;14.37;4.73;;;;;;;5.84;58.38;99194.47;5070542;28;20197;-56
2022/01/31 00:23:16;;;;;;;5.93;4.70;;;;;;;6.01;59.07;99238.34;5070265;28;20717;-56
2022/01/31 00:25:43;;;;;;;12.43;4.80;;;;;;;5.99;59.16;99242.56;5070291;28;20204;-56
2022/01/31 00:28:10;;;;;;;16.23;4.50;;;;;;;5.94;58.86;99224.56;5070636;28;20196;-56
2022/01/31 00:30:37;;;;;;;10.53;4.50;;;;;;;5.93;59.41;99238.13;5070201;28;20194;-56
2022/01/31 00:33:04;;;;;;;11.43;4.90;;;;;;;5.96;59.14;99222.91;5070185;28;20188;-56
2022/01/31 00:35:31;;;;;;;28.57;5.40;;;;;;;6.02;58.52;99223.09;5070455;28;20279;-56
2022/01/31 00:37:58;;;;;;;18.83;4.97;;;;;;;6.06;57.71;99224.94;5070099;28;20198;-56
2022/01/31 00:40:27;;;;;;;12.17;4.23;;;;;;;5.99;57.18;99205.16;5070237;28;20687;-56
2022/01/31 00:42:54;;;;;;;17.57;5.50;;;;;;;6.00;57.53;99229.84;5070030;28;20716;-56
2022/01/31 00:45:25;;;;;;;19.90;5.10;;;;;;;6.06;56.94;99230.03;5070116;28;20191;-56
2022/01/31 00:48:01;;;;;;;13.30;5.00;;;;;;;6.04;57.24;99221.47;5070514;28;20196;-56
2022/01/31 00:50:29;;;;;;;12.83;4.50;;;;;;;6.07;57.07;99223.25;5069909;28;20268;-56
2022/01/31 00:52:56;;;;;;;12.97;4.53;;;;;;;6.05;57.08;99233.38;5074189;28;20295;-56
2022/01/31 00:55:23;;;;;;;16.15;5.20;;;;;;;6.03;56.54;99222.28;5073989;28;20429;-56
2022/01/31 00:57:52;;;;;;;12.07;4.90;;;;;;;6.14;56.62;99235.34;5074490;28;20271;-56
2022/01/31 01:00:19;;;;;;;11.93;5.30;;;;;;;6.14;55.99;99230.25;5073930;28;20289;-56
2022/01/31 01:02:46;;;;;;;14.00;4.33;;;;;;;6.12;56.07;99216.59;5074222;28;20223;-56
2022/01/31 01:05:14;;;;;;;12.40;4.60;;;;;;;6.08;56.37;99202.88;5073872;28;20186;-56
2022/01/31 01:07:45;;;;;;;37.80;6.57;;;;;;;5.99;56.61;99207.69;5074066;28;20224;-56
2022/01/31 01:10:12;;;;;;;11.93;4.00;;;;;;;6.01;56.21;99211.19;5073920;28;20662;-56
2022/01/31 01:12:39;;;;;;;15.03;4.77;;;;;;;6.01;55.65;99213.72;5073860;28;20573;-56
2022/01/31 01:15:08;;;;;;;13.60;5.63;;;;;;;6.08;56.46;99218.19;5073689;28;20198;-56
2022/01/31 01:17:35;;;;;;;14.30;5.10;;;;;;;5.70;56.06;99163.47;5073912;28;20199;-56
2022/01/31 01:20:02;;;;;;;11.83;4.50;;;;;;;6.00;55.68;99234.06;5073702;28;20188;-56
2022/01/31 01:22:29;;;;;;;7.27;3.67;;;;;;;5.97;55.60;99221.22;5068065;28;20597;-56
2022/01/31 01:24:57;;;;;;;15.97;5.17;;;;;;;5.97;56.23;99223.78;5072269;28;20226;-56
2022/01/31 01:27:24;;;;;;;15.47;4.47;;;;;;;6.01;54.58;99223.94;5053429;28;20232;-56
2022/01/31 01:29:51;;;;;;;14.50;4.00;;;;;;;6.04;54.83;99226.56;5053499;28;20604;-56
2022/01/31 01:32:19;;;;;;;10.30;3.83;;;;;;;6.07;53.62;99230.91;5053585;28;20282;-56
2022/01/31 01:34:46;;;;;;;17.20;4.20;;;;;;;6.11;52.88;99227.59;5053469;28;20199;-56
2022/01/31 01:37:13;;;;;;;16.30;4.30;;;;;;;6.11;52.88;99231.03;5053821;28;20192;-56
2022/01/31 01:39:41;;;;;;;5.63;3.20;;;;;;;6.16;52.28;99224.38;5053303;28;20235;-56
2022/01/31 01:42:08;;;;;;;10.87;3.87;;;;;;;6.17;51.97;99231.22;5052854;28;20279;-56
2022/01/31 01:44:46;;;;;;;16.23;3.83;;;;;;;5.89;51.70;99170.88;5053266;28;20718;-56
2022/01/31 01:47:17;;;;;;;10.20;4.33;;;;;;;6.17;52.05;99220.13;5053401;28;20645;-56
2022/01/31 01:49:45;;;;;;;10.03;3.30;;;;;;;6.18;51.65;99215.06;5053512;28;20196;-56
2022/01/31 01:52:12;;;;;;;16.53;3.87;;;;;;;6.20;51.25;99216.00;5053116;28;20199;-56
2022/01/31 01:54:40;;;;;;;12.20;3.47;;;;;;;5.84;51.00;99158.78;5053011;28;20189;-56
2022/01/31 01:57:07;;;;;;;7.63;3.50;;;;;;;6.15;50.55;99222.66;5053176;28;20186;-56
2022/01/31 01:59:35;;;;;;;15.97;3.70;;;;;;;6.16;50.35;99205.63;5053219;28;20215;-56
2022/01/31 02:02:03;;;;;;;14.83;3.70;;;;;;;6.17;50.94;99205.69;5052722;28;20197;-56
2022/01/31 02:04:30;;;;;;;12.20;3.73;;;;;;;6.17;50.78;99192.94;5052946;28;20219;-56
2022/01/31 02:06:58;;;;;;;16.67;4.03;;;;;;;6.23;50.17;99215.22;5050286;28;20200;-57
2022/01/31 02:09:28;;;;;;;10.63;3.63;;;;;;;6.22;50.16;99221.13;5054301;28;20275;-56
2022/01/31 02:11:55;;;;;;;11.43;2.70;;;;;;;6.23;50.04;99215.22;5058217;28;20283;-56
2022/01/31 02:14:22;;;;;;;12.67;3.37;;;;;;;6.14;50.22;99227.69;5059025;28;20204;-56
2022/01/31 02:16:50;;;;;;;9.60;3.83;;;;;;;5.74;50.41;99182.28;5072701;28;20285;-56
2022/01/31 02:19:18;;;;;;;12.17;3.73;;;;;;;6.12;50.45;99224.25;5072825;28;20208;-56
2022/01/31 02:21:50;;;;;;;14.17;3.90;;;;;;;6.20;50.02;99235.53;5072610;28;20210;-60
2022/01/31 02:24:18;;;;;;;8.87;3.47;;;;;;;6.10;50.53;99228.44;5072665;28;20593;-60
2022/01/31 02:26:45;;;;;;;8.83;4.03;;;;;;;6.20;50.00;99235.53;5072654;28;20185;-60
2022/01/31 02:29:12;;;;;;;9.00;3.17;;;;;;;5.90;49.32;99182.81;5072734;28;20491;-60
2022/01/31 02:31:44;;;;;;;13.90;3.90;;;;;;;6.16;49.51;99220.94;5072958;28;20276;-60
2022/01/31 02:34:11;;;;;;;8.37;4.10;;;;;;;6.15;48.39;99222.66;5072600;28;20672;-60
2022/01/31 02:36:38;;;;;;;10.93;3.80;;;;;;;6.19;48.28;99232.09;5072385;28;20280;-60
2022/01/31 02:39:07;;;;;;;11.90;3.63;;;;;;;6.22;48.79;99218.56;5072322;28;20196;-60
2022/01/31 02:41:40;;;;;;;5.80;3.23;;;;;;;6.17;49.01;99230.34;5072137;28;20193;-60
2022/01/31 02:44:13;;;;;;;9.27;3.50;;;;;;;6.15;48.82;99222.66;5072348;28;20247;-60
2022/01/31 02:46:46;;;;;;;8.77;3.47;;;;;;;6.11;49.38;99222.50;5072398;28;20585;-60
2022/01/31 02:49:15;;;;;;;9.50;3.73;;;;;;;5.91;49.82;99194.72;5072334;28;20196;-60
2022/01/31 02:51:47;;;;;;;12.97;3.67;;;;;;;6.06;49.14;99224.06;5072256;28;20188;-60
2022/01/31 02:54:15;;;;;;;8.73;3.50;;;;;;;5.90;49.94;99210.00;5072294;28;20189;-60
2022/01/31 02:56:42;;;;;;;19.33;4.07;;;;;;;6.03;49.99;99239.25;5072173;28;20187;-60
2022/01/31 02:59:09;;;;;;;9.27;3.23;;;;;;;6.00;50.58;99222.19;5072141;28;20200;-60
2022/01/31 03:01:36;;;;;;;13.00;3.30;;;;;;;5.88;50.65;99201.41;5072075;28;20205;-60
2022/01/31 03:04:04;;;;;;;10.37;3.77;;;;;;;6.02;50.90;99233.28;5071866;28;20570;-60
2022/01/31 03:06:31;;;;;;;11.77;3.60;;;;;;;6.03;51.02;99235.03;5071793;28;20203;-59
2022/01/31 03:08:58;;;;;;;7.77;3.33;;;;;;;6.06;50.51;99247.00;5071676;28;20227;-59
2022/01/31 03:11:26;;;;;;;6.27;3.53;;;;;;;6.03;50.75;99252.00;5071857;28;20284;-59
2022/01/31 03:13:53;;;;;;;10.57;3.60;;;;;;;6.04;50.23;99257.19;5071311;28;20197;-60
2022/01/31 03:16:20;;;;;;;7.67;3.80;;;;;;;6.00;50.68;99236.63;5071646;28;20295;-59
2022/01/31 03:18:47;;;;;;;7.83;3.03;;;;;;;6.06;50.86;99247.00;5071549;28;20276;-59
2022/01/31 03:21:14;;;;;;;9.97;3.20;;;;;;;6.07;50.82;99228.34;5071654;28;20711;-59
2022/01/31 03:23:41;;;;;;;7.70;3.30;;;;;;;6.03;50.41;99254.56;5071500;28;20716;-59
2022/01/31 03:26:08;;;;;;;7.70;3.20;;;;;;;6.01;50.35;99249.44;5071495;28;20223;-60
2022/01/31 03:28:36;;;;;;;8.63;3.00;;;;;;;6.00;50.92;99250.25;5071282;28;20196;-60
2022/01/31 03:31:03;;;;;;;10.77;3.00;;;;;;;5.91;51.37;99240.63;5071309;28;20203;-59
2022/01/31 03:33:32;;;;;;;6.23;3.53;;;;;;;5.92;51.63;99250.00;5071385;28;20189;-60
2022/01/31 03:35:59;;;;;;;9.20;3.60;;;;;;;5.91;51.37;99242.31;5071805;28;20923;-60
2022/01/31 03:38:26;;;;;;;10.27;3.10;;;;;;;5.89;52.22;99243.94;5071717;28;20206;-60
2022/01/31 03:40:53;;;;;;;4.93;2.73;;;;;;;5.82;52.61;99249.66;5071574;28;20304;-60
2022/01/31 03:43:20;;;;;;;10.03;3.30;;;;;;;5.89;53.15;99232.06;5071291;28;20194;-59
2022/01/31 03:45:48;;;;;;;8.97;3.33;;;;;;;5.92;53.47;99246.59;5071141;28;20361;-59
2022/01/31 03:48:15;;;;;;;6.67;2.80;;;;;;;5.85;53.70;99245.53;5071170;28;20201;-59
2022/01/31 03:50:42;;;;;;;10.70;3.40;;;;;;;5.89;53.94;99272.00;5071112;28;20199;-60
2022/01/31 03:53:09;;;;;;;12.20;3.37;;;;;;;5.88;53.83;99262.59;5071162;28;20203;-59
2022/01/31 03:55:36;;;;;;;4.40;2.67;;;;;;;5.82;54.10;99272.59;5071044;28;20632;-60
2022/01/31 03:58:03;;;;;;;16.27;3.80;;;;;;;5.87;53.32;99268.53;5067348;28;20202;-60
2022/01/31 04:00:30;;;;;;;13.23;3.23;;;;;;;5.88;53.40;99285.53;5060999;28;20259;-60
2022/01/31 04:02:59;;;;;;;10.87;3.57;;;;;;;5.85;53.63;99295.66;5051358;28;20604;-59
2022/01/31 04:05:25;;;;;;;11.50;3.73;;;;;;;5.85;52.89;99308.41;5070470;28;20306;-60
2022/01/31 04:07:52;;;;;;;9.50;2.90;;;;;;;5.94;53.31;99311.22;5070574;28;20389;-59
2022/01/31 04:10:19;;;;;;;6.90;3.60;;;;;;;5.88;53.14;99316.13;5052684;28;20198;-59
2022/01/31 04:12:46;;;;;;;9.73;4.10;;;;;;;5.88;53.49;99321.22;5059269;28;20536;-60
2022/01/31 04:15:13;;;;;;;6.50;3.40;;;;;;;5.89;52.73;99321.31;5070607;28;20192;-60
2022/01/31 04:17:40;;;;;;;4.70;3.57;;;;;;;5.87;52.22;99319.53;5070594;28;20206;-59
2022/01/31 04:20:09;;;;;;;4.30;3.00;;;;;;;5.78;52.86;99311.53;5052531;28;20292;-59
2022/01/31 04:22:37;;;;;;;11.33;3.30;;;;;;;5.74;53.05;99320.75;5030811;28;20196;-59
2022/01/31 04:25:12;;;;;;;6.60;3.13;;;;;;;5.75;53.42;99321.63;5029549;28;20213;-59
2022/01/31 04:27:45;;;;;;;7.53;3.03;;;;;;;5.65;53.07;99324.72;5030528;28;20221;-59
2022/01/31 04:30:13;;;;;;;8.03;3.13;;;;;;;5.61;53.61;99333.06;5032993;28;20203;-59
2022/01/31 04:32:40;;;;;;;6.37;3.03;;;;;;;5.61;53.62;99336.47;5065577;28;20285;-59
2022/01/31 04:35:09;;;;;;;5.30;3.00;;;;;;;5.64;53.16;99333.16;5050355;28;20184;-60
2022/01/31 04:37:36;;;;;;;12.30;4.37;;;;;;;5.62;52.81;99314.41;5050449;28;20776;-60
2022/01/31 04:40:10;;;;;;;9.13;3.33;;;;;;;5.64;53.05;99320.41;5033135;28;20215;-60
2022/01/31 04:42:37;;;;;;;7.63;3.57;;;;;;;5.52;53.53;99325.13;5030529;28;20285;-59
2022/01/31 04:45:05;;;;;;;3.67;2.80;;;;;;;5.52;53.52;99317.50;5030038;28;20312;-59
2022/01/31 04:47:32;;;;;;;6.80;3.20;;;;;;;5.58;52.86;99318.53;5030146;28;20282;-60
2022/01/31 04:49:58;;;;;;;11.00;3.30;;;;;;;5.58;52.97;99325.31;5030237;28;20198;-59
2022/01/31 04:52:27;;;;;;;6.60;3.07;;;;;;;5.53;52.64;99321.75;5030037;28;20683;-59
2022/01/31 04:54:53;;;;;;;13.10;4.00;;;;;;;5.48;53.46;99318.19;5030389;28;20191;-59
2022/01/31 04:57:20;;;;;;;4.60;3.30;;;;;;;5.47;53.03;99319.84;5030264;28;20375;-59
2022/01/31 04:59:48;;;;;;;8.67;2.93;;;;;;;5.54;52.91;99328.59;5030312;28;20199;-59
2022/01/31 05:02:15;;;;;;;8.10;3.30;;;;;;;5.51;53.34;99331.03;5029964;28;20198;-59
2022/01/31 05:04:42;;;;;;;13.87;3.63;;;;;;;5.50;53.52;99331.84;5029825;28;20220;-59
2022/01/31 05:07:09;;;;;;;7.57;3.47;;;;;;;5.53;53.31;99340.44;5029705;28;20242;-59
2022/01/31 05:09:38;;;;;;;11.33;4.40;;;;;;;5.39;53.31;99346.75;5029929;28;20200;-59
2022/01/31 05:12:06;;;;;;;12.30;3.90;;;;;;;5.50;53.11;99355.63;5029807;28;20285;-59
2022/01/31 05:14:33;;;;;;;10.20;3.93;;;;;;;5.53;53.17;99347.22;5030125;28;20583;-60
2022/01/31 05:16:59;;;;;;;5.87;3.13;;;;;;;5.47;52.86;99360.63;5029936;28;20201;-60
2022/01/31 05:19:26;;;;;;;8.63;3.80;;;;;;;5.53;52.90;99370.16;5029043;28;20444;-60
2022/01/31 05:21:53;;;;;;;11.67;4.37;;;;;;;5.52;53.42;99373.53;5029837;28;20195;-59
2022/01/31 05:24:20;;;;;;;8.63;3.53;;;;;;;5.57;52.89;99377.97;5029617;28;20206;-60
2022/01/31 05:26:50;;;;;;;9.97;4.40;;;;;;;5.54;52.77;99371.91;5029857;28;20200;-61
2022/01/31 05:29:17;;;;;;;9.10;3.60;;;;;;;5.50;52.62;99364.94;5029817;28;20204;-59
2022/01/31 05:31:44;;;;;;;8.17;3.70;;;;;;;5.53;53.17;99373.56;5036988;28;20224;-60
2022/01/31 05:34:12;;;;;;;7.17;3.87;;;;;;;5.48;52.22;99377.66;5058528;28;20206;-60
2022/01/31 05:36:39;;;;;;;9.13;3.43;;;;;;;5.58;52.18;99373.72;5051658;28;20188;-60
2022/01/31 05:39:06;;;;;;;10.80;3.83;;;;;;;5.59;52.28;99380.56;5049235;28;20198;-59
2022/01/31 05:41:33;;;;;;;14.13;4.20;;;;;;;5.66;51.43;99380.81;5050955;28;20277;-60
2022/01/31 05:44:02;;;;;;;10.30;3.93;;;;;;;5.71;51.23;99386.09;5072784;28;20280;-59
2022/01/31 05:46:28;;;;;;;7.63;3.73;;;;;;;5.70;51.59;99384.34;5072620;28;20222;-59
2022/01/31 05:48:55;;;;;;;12.47;3.97;;;;;;;5.73;51.12;99392.09;5073272;28;20593;-59
2022/01/31 05:51:23;;;;;;;9.83;3.57;;;;;;;5.71;51.10;99363.16;5072877;28;20288;-59
2022/01/31 05:53:51;;;;;;;11.80;3.93;;;;;;;5.76;50.72;99394.75;5072846;28;20207;-59
2022/01/31 05:56:19;;;;;;;10.27;3.53;;;;;;;5.73;49.91;99390.41;5072870;28;20673;-60
2022/01/31 05:58:49;;;;;;;12.87;4.23;;;;;;;5.79;50.27;99393.19;5072900;28;20565;-60
2022/01/31 06:01:18;;;;;;;8.83;4.20;;;;;;;5.77;50.47;99399.88;5072553;28;20198;-60
2022/01/31 06:03:44;;;;;;;10.77;3.90;;;;;;;5.75;51.02;99387.91;5058741;28;20198;-56
2022/01/31 06:06:11;;;;;;;8.80;3.60;;;;;;;5.79;50.11;99382.97;5052220;28;20225;-57
2022/01/31 06:08:38;;;;;;;7.40;3.13;;;;;;;5.92;49.63;99397.00;5051887;28;20212;-56
2022/01/31 06:11:05;;;;;;;5.27;3.20;;;;;;;5.90;49.89;99402.06;5052056;28;20273;-56
2022/01/31 06:13:33;;;;;;;5.00;3.27;;;;;;;5.92;49.49;99405.53;5051856;28;20201;-57
2022/01/31 06:16:00;;;;;;;13.40;4.03;;;;;;;5.92;49.65;99397.88;5051861;28;20276;-60
2022/01/31 06:18:28;;;;;;;7.70;3.57;;;;;;;6.00;50.10;99405.78;5049294;28;20189;-60
2022/01/31 06:20:56;;;;;;;9.90;3.87;;;;;;;5.94;50.70;99408.13;5051590;28;20611;-60
2022/01/31 06:23:23;;;;;;;8.20;4.17;;;;;;;6.01;50.06;99412.63;5047681;28;20188;-60
2022/01/31 06:25:50;;;;;;;6.57;3.90;;;;;;;6.04;49.15;99401.66;5050399;28;20253;-60
2022/01/31 06:28:17;;;;;;;10.70;3.60;;;;;;;6.10;49.00;99412.91;5051190;28;20206;-60
2022/01/31 06:30:44;;;;;;;13.40;4.30;;;;;;;6.09;49.35;99393.34;5048688;28;20647;-60
2022/01/31 06:33:15;;;;;;;11.33;3.93;;;;;;;6.11;48.95;99401.91;5051386;28;20276;-60
2022/01/31 06:35:44;;;;;;;8.43;3.80;;;;;;;6.12;49.16;99406.19;5051270;28;20232;-60
2022/01/31 06:38:11;;;;;;;6.53;3.43;;;;;;;6.16;47.97;99407.13;5049154;28;20236;-60
2022/01/31 06:40:38;;;;;;;9.27;3.30;;;;;;;6.23;48.36;99407.41;5051440;28;20192;-61
2022/01/31 06:43:05;;;;;;;10.18;4.03;;;;;;;6.33;47.29;99404.31;5050807;28;20528;-60
2022/01/31 06:45:32;;;;;;;9.30;3.47;;;;;;;6.40;47.65;99407.94;5054488;28;20601;-60
2022/01/31 06:47:59;;;;;;;10.23;4.77;;;;;;;6.57;47.37;99408.41;5046133;28;20214;-60
2022/01/31 06:50:26;;;;;;;9.83;4.00;;;;;;;6.66;47.01;99422.34;5031540;28;20196;-60
2022/01/31 06:52:56;;;;;;;9.77;4.03;;;;;;;6.85;46.33;99424.63;5031522;28;20280;-60
2022/01/31 06:55:23;;;;;;;10.17;3.87;;;;;;;6.86;46.63;99428.94;5031502;28;20782;-61
2022/01/31 06:57:52;;;;;;;13.17;3.80;;;;;;;6.78;46.27;99416.75;5031517;28;20294;-60
2022/01/31 07:00:20;;;;;;;9.67;3.60;;;;;;;6.82;45.48;99423.66;5031553;28;20563;-60
2022/01/31 07:02:47;;;;;;;8.27;3.37;;;;;;;6.63;46.18;99431.59;5031696;28;20643;-60
2022/01/31 07:05:14;;;;;;;8.20;3.43;;;;;;;6.74;46.03;99420.88;5032804;28;20229;-60
2022/01/31 07:07:41;;;;;;;10.77;4.03;;;;;;;6.80;45.11;99420.19;5055430;28;20685;-60
2022/01/31 07:10:11;;;;;;;10.87;3.90;;;;;;;6.76;44.94;99433.69;5059629;28;20610;-60
2022/01/31 07:12:40;;;;;;;5.60;4.30;;;;;;;6.81;45.48;99427.91;5071505;28;20321;-60
2022/01/31 07:15:10;;;;;;;9.30;4.27;;;;;;;6.85;45.75;99424.63;5071025;28;20194;-60
2022/01/31 07:17:38;;;;;;;5.87;3.07;;;;;;;6.90;45.36;99423.06;5071269;28;20190;-60
2022/01/31 07:20:09;;;;;;;9.57;3.93;;;;;;;6.92;45.45;99423.13;5071088;28;20638;-60
2022/01/31 07:22:38;;;;;;;9.10;4.40;;;;;;;6.84;45.16;99399.91;5070947;28;20665;-60
2022/01/31 07:25:09;;;;;;;11.70;4.80;;;;;;;6.96;45.73;99396.84;5075327;28;20218;-63
2022/01/31 07:27:37;;;;;;;6.97;4.30;;;;;;;7.00;45.89;99391.84;5071076;28;20721;-59
2022/01/31 07:30:05;;;;;;;10.47;4.83;;;;;;;6.98;45.32;99390.09;5049310;28;20717;-59
2022/01/31 07:32:35;;;;;;;7.90;4.53;;;;;;;7.00;46.23;99388.47;5048125;28;20184;-59
2022/01/31 07:35:02;;;;;;;9.47;3.87;;;;;;;7.01;45.29;99385.06;5051337;28;20929;-60
2022/01/31 07:37:29;;;;;;;11.27;4.20;;;;;;;6.99;46.08;99377.38;5053984;28;20321;-59
2022/01/31 07:39:55;;;;;;;6.67;3.80;;;;;;;7.03;45.45;99384.28;5056459;28;20205;-59
2022/01/31 07:42:22;;;;;;;9.77;3.50;;;;;;;7.03;45.26;99379.16;5050785;28;20195;-60
2022/01/31 07:44:53;;;;;;;9.70;4.13;;;;;;;7.05;44.32;99372.44;5052511;28;20920;-60
2022/01/31 07:47:19;;;;;;;15.30;7.57;;;;;;;7.17;43.92;99373.59;5054688;28;20206;-60
2022/01/31 07:49:46;;;;;;;14.87;5.10;;;;;;;7.15;43.92;99373.53;5067703;28;20234;-60
2022/01/31 07:52:13;;;;;;;17.00;5.47;;;;;;;7.13;43.90;99377.75;5070361;28;20285;-60
2022/01/31 07:54:40;;;;;;;9.07;4.60;;;;;;;7.11;44.32;99376.84;5070810;28;20193;-60
2022/01/31 07:57:07;;;;;;;10.57;4.23;;;;;;;7.17;43.59;99371.88;5070529;28;20194;-61
2022/01/31 07:59:34;;;;;;;8.60;3.93;;;;;;;7.27;43.71;99366.22;5070044;28;20196;-60
2022/01/31 08:02:03;;;;;;;6.93;3.70;;;;;;;7.38;43.25;99371.63;5070335;28;20203;-60
2022/01/31 08:04:30;;;;;;;8.07;4.83;;;;;;;7.26;42.59;99361.94;5070220;28;20199;-60
2022/01/31 08:06:57;;;;;;;9.97;5.07;;;;;;;7.21;42.57;99363.50;5069961;28;20230;-58
2022/01/31 08:09:24;;;;;;;15.33;5.97;;;;;;;7.26;42.31;99346.59;5069976;28;20284;-60
2022/01/31 08:11:50;;;;;;;12.87;4.40;;;;;;;7.32;42.61;99348.47;5069872;28;20199;-60
2022/01/31 08:14:19;;;;;;;10.60;4.83;;;;;;;7.33;42.66;99342.53;5070339;28;20348;-60
2022/01/31 08:16:46;;;;;;;10.97;4.80;;;;;;;7.34;41.90;99336.56;5070133;28;20188;-60
2022/01/31 08:19:14;;;;;;;9.37;3.97;;;;;;;7.41;42.10;99335.94;5070464;28;20259;-60
2022/01/31 08:21:41;;;;;;;10.10;5.07;;;;;;;7.42;41.50;99320.63;5068134;28;20281;-60
2022/01/31 08:24:08;;;;;;;10.30;4.37;;;;;;;7.34;41.45;99370.66;5049759;28;20195;-59
2022/01/31 08:26:35;;;;;;;5.53;3.13;;;;;;;7.34;41.26;99357.88;5049401;28;20217;-60
2022/01/31 08:29:05;;;;;;;9.80;3.77;;;;;;;7.39;40.83;99352.91;5049490;28;20198;-60
2022/01/31 08:31:35;;;;;;;8.98;3.97;;;;;;;7.47;41.07;99374.44;5048279;28;20441;-60
2022/01/31 08:34:19;;;;;;;8.93;3.43;;;;;;;7.34;40.72;99319.56;5049895;28;20203;-60
2022/01/31 08:36:47;;;;;;;8.97;4.07;;;;;;;7.60;40.95;99372.25;5049856;28;20198;-60
2022/01/31 08:39:18;;;;;;;9.43;3.93;;;;;;;7.63;40.48;99356.97;5049999;28;20634;-60
2022/01/31 08:41:47;;;;;;;7.73;4.07;;;;;;;7.76;39.51;99375.16;5046363;28;20202;-60
2022/01/31 08:44:17;;;;;;;10.67;4.37;;;;;;;7.75;39.58;99360.66;5048744;28;20277;-61
2022/01/31 08:46:45;;;;;;;11.07;3.93;;;;;;;7.50;39.61;99344.69;5049490;28;20311;-60
2022/01/31 08:49:13;;;;;;;9.93;4.93;;;;;;;7.60;39.25;99322.78;5049713;28;20199;-60
2022/01/31 08:51:41;;;;;;;10.97;3.97;;;;;;;7.80;38.60;99343.75;5049870;28;20194;-61
2022/01/31 08:54:10;;;;;;;11.37;5.20;;;;;;;7.83;38.70;99347.22;5050032;28;20199;-60
2022/01/31 08:56:44;;;;;;;9.50;3.80;;;;;;;7.87;38.80;99343.06;5050162;28;20189;-60
2022/01/31 08:59:14;;;;;;;9.63;4.40;;;;;;;7.96;38.29;99336.47;5048966;28;20195;-60
2022/01/31 09:01:43;;;;;;;6.97;3.53;;;;;;;8.00;38.49;99319.50;5048464;28;20196;-56
2022/01/31 09:04:12;;;;;;;10.03;3.53;;;;;;;8.02;38.39;99330.66;5046848;28;20203;-56
2022/01/31 09:06:43;;;;;;;12.20;4.47;;;;;;;8.11;38.22;99318.91;5049257;28;20255;-56
2022/01/31 09:09:16;;;;;;;6.90;4.37;;;;;;;8.22;37.73;99324.28;5049731;28;20307;-57
2022/01/31 09:11:43;;;;;;;4.30;3.23;;;;;;;8.28;37.72;99329.56;5052128;28;20276;-57
2022/01/31 09:14:10;;;;;;;9.87;3.50;;;;;;;8.26;36.61;99331.22;5053481;28;20199;-57
2022/01/31 09:16:37;;;;;;;9.17;3.27;;;;;;;8.23;37.02;99320.91;5053482;28;20709;-57
2022/01/31 09:19:04;;;;;;;6.40;3.37;;;;;;;8.16;37.30;99342.03;5051512;28;20298;-57
2022/01/31 09:21:31;;;;;;;8.10;3.20;;;;;;;8.01;37.09;99329.78;5052985;28;20207;-57
2022/01/31 09:23:58;;;;;;;7.43;4.20;;;;;;;8.07;37.01;99324.81;5052379;28;20214;-57
2022/01/31 09:26:27;;;;;;;6.83;3.37;;;;;;;8.12;36.63;99309.56;5052918;28;20220;-57
2022/01/31 09:28:54;;;;;;;5.93;3.37;;;;;;;8.21;36.21;99315.72;5052909;28;20668;-57
2022/01/31 09:31:22;;;;;;;7.60;3.23;;;;;;;8.21;36.36;99299.53;5053001;28;20190;-56
2022/01/31 09:33:50;;;;;;;7.90;3.50;;;;;;;8.33;36.70;99284.47;5050342;28;20184;-56
2022/01/31 09:36:17;;;;;;;5.77;2.97;;;;;;;8.38;36.87;99285.41;5052585;28;20204;-56
2022/01/31 09:38:44;;;;;;;5.53;3.13;;;;;;;8.48;36.42;99274.56;5052414;28;20221;-56
2022/01/31 09:41:16;;;;;;;20.27;14.57;;;;;;;8.46;36.54;99268.53;5050210;28;20215;-57
2022/01/31 09:49:11;;;;;;;3.13;2.67;;;;;;;8.55;35.96;99238.00;5028581;28;20184;-57
2022/01/31 09:51:38;;;;;;;6.32;3.33;;;;;;;8.62;35.65;99229.63;5071830;28;20920;-56
2022/01/31 09:54:06;;;;;;;5.20;3.03;;;;;;;8.65;35.40;99223.69;5055395;28;20206;-56
2022/01/31 09:56:36;;;;;;;4.53;2.90;;;;;;;8.61;35.65;99229.56;5057416;28;20206;-58
2022/01/31 09:59:06;;;;;;;6.67;3.13;;;;;;;8.58;35.10;99215.00;5072361;28;20191;-57
2022/01/31 10:01:34;;;;;;;7.50;3.53;;;;;;;8.65;35.46;99218.56;5072754;28;20206;-57
2022/01/31 10:04:07;;;;;;;5.37;2.70;;;;;;;8.78;35.13;99203.47;5051049;28;20598;-57
2022/01/31 10:06:35;;;;;;;7.23;2.87;;;;;;;8.78;35.06;99208.59;5051908;28;20219;-57
2022/01/31 10:09:07;;;;;;;5.23;2.90;;;;;;;8.67;34.98;99169.09;5049777;28;20347;-57
2022/01/31 10:11:41;;;;;;;5.47;3.10;;;;;;;8.94;34.73;99203.72;5051948;28;20203;-57
2022/01/31 10:17:08;;;;;;;5.87;3.30;;;;;;;9.13;33.89;99216.03;5051330;28;20191;-57
2022/01/31 10:19:43;;;;;;;5.30;2.90;;;;;;;9.11;33.90;99205.75;5052110;28;20191;-57
2022/01/31 10:22:13;;;;;;;5.50;3.10;;;;;;;9.23;33.72;99197.41;5053065;28;20585;-57
2022/01/31 10:24:42;;;;;;;5.70;3.23;;;;;;;9.35;33.55;99185.66;5048514;28;20588;-56
2022/01/31 10:27:12;;;;;;;6.57;2.93;;;;;;;9.38;32.30;99170.31;5051159;28;20248;-56
2022/01/31 10:29:41;;;;;;;4.63;2.90;;;;;;;9.49;32.57;99179.03;5052174;28;20274;-57
2022/01/31 10:32:10;;;;;;;5.60;3.07;;;;;;;9.54;32.15;99171.41;5050648;28;20193;-56
2022/01/31 10:34:39;;;;;;;5.90;2.87;;;;;;;9.46;32.61;99166.16;5046941;28;20193;-58
2022/01/31 10:37:11;;;;;;;8.33;2.70;;;;;;;9.44;32.49;99169.56;5051477;28;20180;-59
2022/01/31 10:54:01;;;;;;;9.55;4.40;;;;;;;9.64;31.86;99108.31;5050615;28;20505;-61
2022/01/31 10:56:37;;;;;;;7.50;4.80;;;;;;;9.81;31.89;99111.94;5046583;28;20681;-59
2022/01/31 10:59:07;;;;;;;8.63;4.00;;;;;;;9.95;31.88;99103.56;5051066;28;20639;-60
2022/01/31 11:01:37;;;;;;;7.50;4.23;;;;;;;10.01;31.96;99092.53;5051428;28;20204;-59
2022/01/31 11:04:05;;;;;;;5.23;3.70;;;;;;;10.02;32.41;99086.56;5032782;28;20204;-60
2022/01/31 11:06:34;;;;;;;5.17;3.00;;;;;;;9.99;31.83;99079.69;5031058;28;20505;-59
2022/01/31 11:09:03;;;;;;;6.97;4.00;;;;;;;9.89;31.73;99066.69;5030832;28;20334;-59
2022/01/31 11:11:32;;;;;;;6.77;3.00;;;;;;;9.95;31.59;99069.34;5031108;28;20196;-59
2022/01/31 11:14:00;;;;;;;7.13;3.10;;;;;;;9.90;31.77;99065.88;5031250;28;20208;-60
2022/01/31 11:16:28;;;;;;;8.60;3.60;;;;;;;9.93;31.21;99056.50;5033180;28;20280;-57
2022/01/31 11:19:00;;;;;;;7.57;3.20;;;;;;;9.94;31.14;99070.22;5032761;28;20193;-55
2022/01/31 11:21:29;;;;;;;4.47;3.50;;;;;;;9.93;31.47;99050.50;5044741;28;20196;-58
2022/01/31 11:24:02;;;;;;;7.20;3.43;;;;;;;9.90;30.66;99038.50;5051197;28;20253;-57
2022/01/31 11:26:35;;;;;;;10.63;2.97;;;;;;;9.87;30.88;99017.94;5050921;28;20224;-57
2022/01/31 11:29:05;;;;;;;5.97;3.07;;;;;;;9.88;30.90;99022.25;5050907;28;20192;-58
2022/01/31 11:31:33;;;;;;;6.40;3.27;;;;;;;10.00;30.92;99018.94;5050983;28;20206;-57
2022/01/31 11:34:02;;;;;;;7.57;2.90;;;;;;;10.15;30.48;99016.56;5050029;28;20659;-57
2022/01/31 11:36:30;;;;;;;4.17;2.27;;;;;;;10.14;30.12;99008.84;5050311;28;20189;-57
2022/01/31 11:38:57;;;;;;;5.63;3.20;;;;;;;10.20;30.29;99016.59;5049683;28;20439;-58
2022/01/31 11:41:25;;;;;;;7.47;3.20;;;;;;;10.27;29.58;99006.44;5036648;28;20458;-57
2022/01/31 11:43:58;;;;;;;6.63;3.07;;;;;;;10.30;29.83;99021.00;5031962;28;20199;-57
2022/01/31 11:46:25;;;;;;;13.00;3.03;;;;;;;10.26;30.07;98994.44;5030154;28;20315;-57
2022/01/31 11:48:53;;;;;;;5.90;3.13;;;;;;;10.18;29.36;98995.19;5030408;28;20737;-57
2022/01/31 11:51:22;;;;;;;5.50;3.30;;;;;;;10.21;29.72;98996.09;5030341;28;20201;-57
2022/01/31 11:53:49;;;;;;;4.90;2.83;;;;;;;10.04;29.08;98951.41;5030493;28;20200;-57
2022/01/31 11:56:18;;;;;;;5.77;2.80;;;;;;;10.18;29.13;98980.66;5033477;28;20184;-58
2022/01/31 11:58:47;;;;;;;3.83;2.70;;;;;;;10.16;29.20;98974.66;5047404;28;20282;-57
2022/01/31 12:01:15;;;;;;;5.83;3.43;;;;;;;10.16;29.91;98973.81;5051854;28;20199;-57
2022/01/31 12:03:53;;;;;;;10.07;4.27;;;;;;;10.15;29.08;98969.50;5065671;28;20586;-57